createdAt,value
2019-03-03T00:00:29.806Z,99.10
2019-03-03T00:06:29.851Z,92.80
2019-03-03T00:12:29.783Z,84.90
2019-03-03T00:18:29.828Z,80.70
2019-03-03T00:24:29.787Z,75.40
2019-03-03T00:30:29.790Z,73.20
2019-03-03T00:36:29.802Z,68.70
2019-03-03T00:42:29.895Z,65.70
2019-03-03T00:48:29.818Z,63.60
2019-03-03T00:54:29.796Z,59.30
2019-03-03T01:00:31.840Z,57.10
2019-03-03T01:06:30.076Z,54.40
2019-03-03T01:12:30.802Z,50.90
2019-03-03T01:18:29.836Z,48.50
2019-03-03T01:24:29.829Z,45.70
2019-03-03T01:30:29.927Z,44.30
2019-03-03T01:36:29.835Z,40.60
2019-03-03T01:42:29.907Z,39.20
2019-03-03T01:48:29.844Z,37.90
2019-03-03T01:54:30.911Z,35.20
2019-03-03T02:00:29.854Z,34.00
2019-03-03T02:06:29.835Z,32.10
2019-03-03T02:12:29.852Z,32.00
2019-03-03T02:18:29.950Z,30.10
2019-03-03T02:24:29.847Z,28.40
2019-03-03T02:30:29.875Z,27.30
2019-03-03T02:36:29.881Z,26.30
2019-03-03T02:42:29.890Z,25.10
2019-03-03T02:48:29.970Z,23.20
2019-03-03T02:54:29.903Z,22.80
2019-03-03T03:00:29.890Z,21.00
2019-03-03T03:06:30.011Z,20.90
2019-03-03T03:12:29.902Z,19.80
2019-03-03T03:18:29.897Z,18.80
2019-03-03T03:24:29.924Z,17.80
2019-03-03T03:30:29.915Z,17.70
2019-03-03T03:36:29.915Z,16.30
2019-03-03T03:42:29.921Z,15.80
2019-03-03T03:48:29.926Z,15.10
2019-03-03T03:54:29.933Z,14.80
2019-03-03T04:00:29.939Z,14.10
2019-03-03T04:06:29.966Z,13.70
2019-03-03T04:12:30.045Z,12.10
2019-03-03T04:18:29.989Z,12.00
2019-03-03T04:24:29.961Z,12.40
2019-03-03T04:30:29.968Z,11.20
2019-03-03T04:36:29.978Z,10.70
2019-03-03T04:42:29.977Z,10.50
2019-03-03T04:48:29.975Z,9.80
2019-03-03T04:54:29.970Z,9.80
2019-03-03T05:00:29.977Z,9.50
2019-03-03T05:06:30.015Z,8.50
2019-03-03T05:12:30.017Z,8.30
2019-03-03T05:18:30.024Z,8.00
2019-03-03T05:24:34.326Z,7.70
2019-03-03T05:30:30.016Z,7.50
2019-03-03T05:36:30.051Z,7.10
2019-03-03T05:42:30.034Z,6.70
2019-03-03T05:48:30.066Z,6.90
2019-03-03T05:54:30.173Z,6.50
2019-03-03T06:00:30.029Z,6.10
2019-03-03T06:06:30.062Z,6.30
2019-03-03T06:12:30.063Z,5.80
2019-03-03T06:18:30.068Z,5.90
2019-03-03T06:24:30.059Z,5.40
2019-03-03T06:30:30.069Z,5.60
2019-03-03T06:36:30.095Z,5.00
2019-03-03T06:42:30.097Z,4.70
2019-03-03T06:48:30.098Z,4.80
2019-03-03T06:54:30.186Z,4.30
2019-03-03T07:00:30.098Z,4.40
2019-03-03T07:06:30.087Z,4.50
2019-03-03T07:12:31.135Z,4.20
2019-03-03T07:18:30.110Z,4.10
2019-03-03T07:24:30.103Z,4.00
2019-03-03T07:30:30.096Z,3.70
2019-03-03T07:36:30.145Z,3.40
2019-03-03T07:42:30.124Z,3.80
2019-03-03T07:49:13.860Z,3.50
2019-03-03T07:55:13.987Z,3.70
2019-03-03T08:01:13.874Z,3.00
2019-03-03T08:07:13.915Z,3.20
2019-03-03T08:13:13.886Z,3.10
2019-03-03T08:19:13.923Z,2.80
2019-03-03T08:25:13.892Z,2.70
2019-03-03T08:31:13.873Z,2.70
2019-03-03T08:37:13.959Z,2.70
2019-03-03T08:43:13.978Z,2.80
2019-03-03T08:49:13.920Z,2.60
2019-03-03T08:55:13.966Z,2.80
2019-03-03T09:01:13.909Z,2.40
2019-03-03T09:07:13.960Z,2.30
2019-03-03T09:13:13.980Z,2.50
2019-03-03T09:19:13.938Z,2.30
2019-03-03T09:25:13.977Z,2.50
2019-03-03T09:31:14.021Z,2.10
2019-03-03T09:37:13.956Z,2.10
2019-03-03T09:43:13.934Z,1.90
2019-03-03T09:49:13.942Z,2.10
2019-03-03T09:55:14.011Z,2.10
2019-03-03T10:01:14.022Z,509.80
2019-03-03T10:07:13.986Z,559.80
2019-03-03T10:13:14.036Z,244.10
2019-03-03T10:19:14.075Z,169.70
2019-03-03T10:25:14.013Z,145.60
2019-03-03T10:31:14.061Z,130.30
2019-03-03T10:37:14.585Z,105.90
2019-03-03T10:43:14.009Z,363.30
2019-03-03T10:49:14.010Z,430.10
2019-03-03T10:55:13.985Z,467.40
2019-03-03T11:01:14.008Z,382.40
2019-03-03T11:07:13.999Z,342.30
2019-03-03T11:13:14.051Z,292.50
2019-03-03T11:19:14.087Z,272.40
2019-03-03T11:25:14.093Z,244.30
2019-03-03T11:31:14.028Z,214.40
2019-03-03T11:37:14.172Z,197.40
2019-03-03T11:43:14.080Z,775.90
2019-03-03T11:49:14.108Z,319.30
2019-03-03T11:55:14.053Z,273.00
2019-03-03T12:01:14.053Z,252.60
2019-03-03T12:07:14.063Z,311.20
2019-03-03T12:13:14.649Z,298.30
2019-03-03T12:19:14.102Z,283.70
2019-03-03T12:25:14.143Z,256.40
2019-03-03T12:31:14.061Z,278.40
2019-03-03T12:37:14.091Z,298.30
2019-03-03T12:43:14.186Z,313.90
2019-03-03T12:49:14.073Z,268.10
2019-03-03T12:55:14.096Z,244.20
2019-03-03T13:01:14.192Z,227.70
2019-03-03T13:07:14.079Z,204.60
2019-03-03T13:13:14.198Z,199.00
2019-03-03T13:19:14.102Z,301.40
2019-03-03T13:25:14.123Z,293.30
2019-03-03T13:31:14.191Z,228.50
2019-03-03T13:37:14.135Z,202.60
2019-03-03T13:43:14.112Z,228.70
2019-03-03T13:49:14.133Z,242.90
2019-03-03T13:55:14.123Z,201.50
2019-03-03T14:01:14.148Z,188.00
2019-03-03T14:07:14.153Z,167.30
2019-03-03T14:13:14.133Z,149.40
2019-03-03T14:19:14.207Z,143.50
2019-03-03T14:25:14.141Z,126.60
2019-03-03T14:31:14.159Z,120.40
2019-03-03T14:37:14.167Z,108.00
2019-03-03T14:43:14.194Z,198.10
2019-03-03T14:49:14.165Z,201.70
2019-03-03T14:55:14.187Z,152.50
2019-03-03T15:01:14.195Z,136.60
2019-03-03T15:07:14.183Z,119.40
2019-03-03T15:13:15.940Z,106.10
2019-03-03T15:19:14.237Z,105.20
2019-03-03T15:25:14.194Z,96.30
2019-03-03T15:31:14.211Z,85.20
2019-03-03T15:37:14.288Z,78.80
2019-03-03T15:43:14.190Z,68.30
2019-03-03T15:49:14.231Z,61.90
2019-03-03T15:55:14.501Z,61.50
2019-03-03T16:01:14.335Z,122.20
2019-03-03T16:07:14.278Z,211.60
2019-03-03T16:13:14.328Z,189.60
2019-03-03T16:19:14.232Z,118.20
2019-03-03T16:25:14.241Z,74.70
2019-03-03T16:31:14.322Z,38.50
2019-03-03T16:37:14.249Z,26.60
2019-03-03T16:43:14.332Z,18.20
2019-03-03T16:49:14.270Z,15.30
2019-03-03T16:55:14.265Z,10.10
2019-03-03T17:01:14.327Z,8.40
2019-03-03T17:07:14.253Z,8.30
2019-03-03T17:13:14.283Z,7.30
2019-03-03T17:19:14.297Z,6.00
2019-03-03T17:25:14.301Z,4.50
2019-03-03T17:31:14.338Z,3.30
2019-03-03T17:37:14.326Z,3.60
2019-03-03T17:43:14.283Z,3.60
2019-03-03T17:49:14.366Z,3.30
2019-03-03T17:55:14.293Z,5.10
2019-03-03T18:01:14.289Z,4.60
2019-03-03T18:07:14.383Z,3.90
2019-03-03T18:13:14.300Z,4.30
2019-03-03T18:19:14.355Z,32.00
2019-03-03T18:25:14.441Z,58.80
2019-03-03T18:31:14.345Z,73.40
2019-03-03T18:37:14.458Z,215.70
2019-03-03T18:43:14.332Z,198.50
2019-03-03T18:49:14.424Z,126.60
2019-03-03T18:55:14.458Z,115.30
2019-03-03T19:01:14.518Z,107.40
2019-03-03T19:07:14.405Z,85.90
2019-03-03T19:13:14.466Z,84.50
2019-03-03T19:32:35.970Z,66.10
2019-03-03T19:38:36.044Z,223.80
2019-03-03T19:44:35.973Z,189.80
2019-03-03T19:50:36.093Z,147.30
2019-03-03T19:56:36.056Z,129.80
2019-03-03T20:02:36.015Z,99.60
2019-03-03T20:08:36.053Z,100.70
2019-03-03T20:14:35.995Z,95.90
2019-03-03T20:20:36.049Z,89.90
2019-03-03T20:26:36.076Z,82.60
2019-03-03T20:32:36.013Z,74.70
2019-03-03T20:38:36.048Z,69.00
2019-03-03T20:44:36.078Z,243.40
2019-03-03T20:50:36.009Z,191.60
2019-03-03T20:56:36.010Z,182.20
2019-03-03T21:02:36.037Z,152.20
2019-03-03T21:08:36.039Z,273.90
2019-03-03T21:14:36.090Z,255.80
2019-03-03T21:20:36.173Z,202.90
2019-03-03T21:26:36.030Z,192.50
2019-03-03T21:32:36.033Z,174.70
2019-03-03T21:38:36.033Z,159.50
2019-03-03T21:44:36.057Z,150.50
2019-03-03T21:50:36.151Z,135.40
2019-03-03T21:56:36.076Z,123.70
2019-03-03T22:02:36.066Z,116.40
2019-03-03T22:08:36.066Z,104.70
2019-03-03T22:14:36.102Z,99.00
2019-03-03T22:20:36.142Z,87.10
2019-03-03T22:26:36.129Z,78.60
2019-03-03T22:32:36.184Z,72.90
2019-03-03T22:38:36.116Z,67.80
2019-03-03T22:44:38.113Z,61.90
2019-03-03T22:50:36.161Z,71.30
2019-03-03T22:56:36.177Z,113.60
2019-03-03T23:02:36.109Z,145.20
2019-03-03T23:08:36.183Z,106.70
2019-03-03T23:14:36.142Z,89.70
2019-03-03T23:20:36.140Z,81.20
2019-03-03T23:26:36.203Z,74.20
2019-03-03T23:32:36.158Z,69.30
2019-03-03T23:38:36.162Z,59.80
2019-03-03T23:44:36.132Z,58.10
2019-03-03T23:50:36.255Z,51.70
2019-03-03T23:56:36.222Z,48.80
